Lanely, Texas
Current Conditions -  °F | °C
As of 2:15 PM on Thursday 30 Oct 2014 (Local Time) from KLXY Reporting Station
Clear Clear  
Wind Chill: 73°   Ceiling: Unl
Heat Index: 73°   Visibility: 10mi
Dew Point: 50°   Wind: 0mph
Humidity: 44%   Direction: NA
Pressure: 30.1"   Gusts: NA
Location:  31.4723°N, 96.0615°W
Report Text: KLXY 301915Z AUTO 00000KT 10SM CLR 23/10 A3010 RMK AO2 T02280100
Loading
Personal Weather Stations






























Interactive Weather Map
Tropical Storm Tracking
New forecast layout! Learn more

10-Day Weather Forecast

Advertisements
Track Severe Weather on mobile